Lariat, Colorado
Current Conditions -  °F | °C
As of 3:50 PM on Thursday 20 Nov 2014 (Local Time) from KRCV Reporting Station
Scattered Clouds Scattered Clouds  
Wind Chill: 39°   Ceiling: Unl
Heat Index: 39°   Visibility: 10mi
Dew Point:   Wind: 0mph
Humidity: 29%   Direction: NA
Pressure: 30.07"   Gusts: NA
Location:  37.5196°N, 106.176°W
Report Text: KRCV 202250Z AUTO 00000KT 10SM SCT100 04/M13 A3007 RMK AO2 T00401129
Loading
Personal Weather Stations






























Interactive Weather Map New forecast layout! Learn more

10-Day Weather Forecast

Advertisements
Track Severe Weather on mobile